Time;durP1;ratioP1;P1;durP2;ratioP2;P2;SDS_P1;SDS_P2;PMS_P1;PMS_P2;Temp;Humidity;BMP_temperature;BMP_pressure;BME280_temperature;BME280_humidity;BME280_pressure;Samples;Min_cycle;Max_cycle;Signal;HPM_P1;HPM_P2
2021/12/17 00:07:06;;;;;;;94.78;43.60;;;;;;;5.57;84.09;101300.47;5034547;28;20033;-76
2021/12/17 00:09:32;;;;;;;86.22;41.80;;;;;;;5.50;84.44;101302.59;5034079;28;20018;-76
2021/12/17 00:11:57;;;;;;;81.57;41.78;;;;;;;5.46;84.77;101293.03;5034319;28;20041;-76
2021/12/17 00:14:26;;;;;;;82.93;41.53;;;;;;;5.45;85.29;101304.63;5034430;28;20087;-77
2021/12/17 00:16:56;;;;;;;82.22;41.70;;;;;;;5.39;85.81;101306.72;5034481;28;20102;-76
2021/12/17 00:49:19;;;;;;;93.40;43.95;;;;;;;5.26;87.92;101295.78;5033620;28;20017;-75
2021/12/17 00:54:35;;;;;;;83.65;40.63;;;;;;;5.27;87.18;101294.88;5033581;28;20478;-76
2021/12/17 00:57:14;;;;;;;81.20;41.25;;;;;;;5.23;87.46;101295.94;5033858;28;20032;-77
2021/12/17 00:59:46;;;;;;;85.20;40.13;;;;;;;5.31;87.26;101291.13;5033898;28;20406;-76
2021/12/17 01:02:13;;;;;;;;;;;;;;;5.28;87.28;101293.94;5054009;28;20009;-76
2021/12/17 01:04:43;;;;;;;84.95;41.75;;;;;;;5.26;87.35;101297.63;5033902;28;19916;-76
2021/12/17 01:07:12;;;;;;;83.47;42.88;;;;;;;5.35;87.31;101289.16;5033142;28;20052;-76
2021/12/17 01:09:38;;;;;;;88.70;42.35;;;;;;;5.40;87.24;101287.13;5033118;28;20026;-76
2021/12/17 01:12:05;;;;;;;86.78;42.38;;;;;;;5.46;87.26;101292.16;5033015;28;20498;-76
2021/12/17 01:14:32;;;;;;;94.72;45.50;;;;;;;5.58;86.56;101288.00;5033271;28;20032;-76
2021/12/17 01:16:58;;;;;;;86.57;42.47;;;;;;;5.67;86.12;101301.75;5032719;28;20104;-76
2021/12/17 01:20:06;;;;;;;88.13;41.70;;;;;;;5.78;86.16;101290.56;5032609;28;20033;-76
2021/12/17 01:25:07;;;;;;;90.85;42.25;;;;;;;5.98;86.16;101290.41;5033080;28;20033;-76
2021/12/17 01:35:46;;;;;;;71.47;38.50;;;;;;;6.29;82.96;101285.19;5033101;28;20082;-76
2021/12/17 01:43:10;;;;;;;75.88;40.78;;;;;;;6.39;80.95;101285.56;5033392;28;20034;-78
2021/12/17 01:45:38;;;;;;;78.50;40.10;;;;;;;6.47;81.16;101276.19;5033693;28;20475;-77
2021/12/17 01:48:08;;;;;;;76.63;40.05;;;;;;;6.44;80.80;101273.69;5034620;28;20113;-79
2021/12/17 02:01:34;;;;;;;67.85;35.70;;;;;;;6.61;83.18;101256.72;5038368;28;20044;-79
2021/12/17 02:04:03;;;;;;;80.57;38.08;;;;;;;6.62;83.21;101254.91;5037992;28;20468;-79
2021/12/17 02:06:30;;;;;;;70.50;40.53;;;;;;;6.61;83.10;101270.06;5038030;28;20017;-79
2021/12/17 02:08:58;;;;;;;71.05;38.80;;;;;;;6.58;81.58;101257.75;5037738;28;20013;-79
2021/12/17 02:20:10;;;;;;;75.95;37.38;;;;;;;6.71;81.79;101235.69;5044608;28;20094;-79
2021/12/17 02:30:52;;;;;;;67.20;35.45;;;;;;;6.58;80.53;101231.03;5037991;28;20100;-79
2021/12/17 02:33:19;;;;;;;62.40;35.92;;;;;;;6.64;80.17;101223.59;5019772;28;20018;-78
2021/12/17 02:35:46;;;;;;;62.80;32.20;;;;;;;6.67;80.15;101212.75;5037563;28;20081;-78
2021/12/17 02:38:14;;;;;;;64.30;34.58;;;;;;;6.68;81.38;101211.81;5038689;28;20026;-78
2021/12/17 02:46:09;;;;;;;64.53;33.53;;;;;;;6.54;79.04;101202.72;5036913;28;20561;-78
2021/12/17 02:48:35;;;;;;;63.47;33.97;;;;;;;6.61;79.71;101205.06;5037635;28;20089;-79
2021/12/17 02:51:01;;;;;;;58.75;34.30;;;;;;;6.71;79.75;101195.59;5036437;28;20021;-79
2021/12/17 02:53:28;;;;;;;65.25;32.30;;;;;;;6.84;80.72;101207.34;5036825;28;20032;-79
2021/12/17 02:56:02;;;;;;;57.50;32.22;;;;;;;6.90;80.92;101196.28;5036629;28;20391;-79
2021/12/17 02:58:31;;;;;;;55.70;32.30;;;;;;;6.95;80.65;101196.88;5036356;28;20026;-79
2021/12/17 03:00:57;;;;;;;55.92;32.38;;;;;;;6.95;81.28;101199.53;5036521;28;20111;-80
2021/12/17 03:03:26;;;;;;;55.65;31.15;;;;;;;6.95;81.82;101204.91;5036713;28;20032;-79
2021/12/17 03:05:53;;;;;;;62.30;32.20;;;;;;;6.95;81.42;101194.19;5036245;28;20468;-80
2021/12/17 03:08:19;;;;;;;74.88;33.58;;;;;;;6.98;80.51;101189.53;5036773;28;20092;-79
2021/12/17 03:10:47;;;;;;;54.05;30.77;;;;;;;7.00;80.41;101187.63;5036738;28;20533;-80
2021/12/17 03:13:21;;;;;;;58.63;32.08;;;;;;;7.06;79.28;101186.44;5036813;28;20104;-79
2021/12/17 03:23:42;;;;;;;51.38;29.73;;;;;;;7.13;79.81;101194.00;5036228;28;20056;-80
2021/12/17 03:26:13;;;;;;;52.72;28.55;;;;;;;7.16;79.75;101187.59;5018610;28;20094;-79
2021/12/17 03:28:41;;;;;;;55.08;29.65;;;;;;;7.13;79.45;101188.66;5035986;28;20377;-79
2021/12/17 03:31:08;;;;;;;57.40;30.88;;;;;;;7.22;79.33;101191.72;5035625;28;20030;-79
2021/12/17 03:33:34;;;;;;;58.50;32.13;;;;;;;7.22;78.39;101192.59;5018757;28;20037;-79
2021/12/17 03:36:00;;;;;;;49.47;27.90;;;;;;;7.25;78.04;101187.06;5036643;28;20036;-79
2021/12/17 03:38:27;;;;;;;51.45;28.20;;;;;;;7.17;77.50;101186.66;5036250;28;20490;-79
2021/12/17 03:41:04;;;;;;;46.88;26.75;;;;;;;7.24;77.64;101185.38;5036953;28;20127;-78
2021/12/17 03:43:31;;;;;;;47.63;27.02;;;;;;;7.20;77.38;101178.47;5048864;28;20104;-78
2021/12/17 03:45:57;;;;;;;46.85;26.33;;;;;;;7.27;77.79;101187.84;5048138;28;20025;-79
2021/12/17 03:48:23;;;;;;;44.40;25.38;;;;;;;7.19;76.32;101190.09;5045410;28;20494;-81
2021/12/17 03:50:48;;;;;;;45.15;26.13;;;;;;;7.06;75.18;101173.06;5036117;28;20041;-80
2021/12/17 03:53:14;;;;;;;49.58;27.75;;;;;;;6.94;74.81;101181.81;5036186;28;20064;-78
2021/12/17 03:55:39;;;;;;;47.47;26.50;;;;;;;7.00;76.58;101181.44;5043164;28;20089;-79
2021/12/17 03:58:05;;;;;;;48.92;26.83;;;;;;;6.98;77.89;101188.66;5039234;28;20395;-78
2021/12/17 04:00:30;;;;;;;49.83;27.23;;;;;;;6.96;78.28;101177.22;5035689;28;20112;-79
2021/12/17 04:02:56;;;;;;;51.33;27.45;;;;;;;6.95;77.59;101183.50;5036020;28;20032;-78
2021/12/17 04:05:23;;;;;;;60.25;28.17;;;;;;;6.96;78.03;101185.25;5035661;28;20534;-78
2021/12/17 04:07:48;;;;;;;53.40;27.75;;;;;;;6.90;78.09;101185.59;5035444;28;20471;-78
2021/12/17 04:10:14;;;;;;;55.50;29.60;;;;;;;6.91;78.33;101187.31;5036629;28;20030;-78
2021/12/17 04:15:15;;;;;;;62.92;30.50;;;;;;;6.98;78.20;101181.50;5035289;28;20041;-80
2021/12/17 04:17:45;;;;;;;55.28;29.65;;;;;;;6.93;77.40;101180.06;5041537;28;20475;-78
2021/12/17 04:20:11;;;;;;;57.13;29.95;;;;;;;6.99;78.02;101185.94;5057476;28;20021;-79
2021/12/17 04:22:36;;;;;;;54.60;30.27;;;;;;;6.88;76.94;101176.81;5034311;28;20028;-78
2021/12/17 04:25:03;;;;;;;46.58;27.52;;;;;;;6.93;76.28;101180.06;5038006;28;20085;-76
2021/12/17 04:27:29;;;;;;;53.33;28.67;;;;;;;6.97;77.75;101166.41;5042247;28;20128;-77
2021/12/17 04:29:56;;;;;;;65.05;30.08;;;;;;;7.01;78.20;101176.00;5034078;28;20013;-76
2021/12/17 04:32:22;;;;;;;62.75;30.35;;;;;;;7.08;77.83;101177.38;5034268;28;20387;-76
2021/12/17 04:34:48;;;;;;;56.58;29.80;;;;;;;7.11;78.36;101184.34;5034282;28;20033;-76
2021/12/17 04:37:13;;;;;;;48.40;27.88;;;;;;;7.15;77.65;101185.03;5034176;28;20037;-76
2021/12/17 04:39:39;;;;;;;50.90;28.98;;;;;;;7.17;77.15;101177.78;5035078;28;20075;-77
2021/12/17 04:42:12;;;;;;;57.13;31.80;;;;;;;7.17;76.89;101188.47;5034430;28;20132;-77
2021/12/17 04:44:42;;;;;;;51.72;28.30;;;;;;;7.07;77.24;101183.66;5032816;28;20033;-77
2021/12/17 04:57:46;;;;;;;54.30;30.05;;;;;;;6.93;79.13;101201.47;5032528;28;20497;-76
2021/12/17 05:00:19;;;;;;;53.97;31.15;;;;;;;6.99;79.78;101210.00;5033446;28;20029;-78
2021/12/17 05:02:48;;;;;;;52.88;29.88;;;;;;;7.03;80.24;101203.50;5033544;28;20468;-76
2021/12/17 05:05:15;;;;;;;62.85;34.80;;;;;;;7.00;80.29;101202.84;5032751;28;20033;-77
2021/12/17 05:07:47;;;;;;;60.08;32.38;;;;;;;7.03;80.24;101208.00;5033248;28;20034;-78
2021/12/17 05:18:31;;;;;;;62.65;33.08;;;;;;;7.00;80.45;101186.78;5033012;28;20079;-78
2021/12/17 05:21:04;;;;;;;58.72;32.38;;;;;;;7.08;79.85;101201.44;5033256;28;20029;-77
2021/12/17 05:23:34;;;;;;;65.43;35.28;;;;;;;6.96;78.91;101202.16;5033852;28;20068;-78
2021/12/17 05:26:05;;;;;;;59.15;32.40;;;;;;;6.93;78.81;101198.78;5033153;28;20060;-77
2021/12/17 05:28:31;;;;;;;60.80;33.70;;;;;;;7.04;78.55;101204.38;5033603;28;20033;-79
2021/12/17 05:30:56;;;;;;;70.72;34.65;;;;;;;7.05;78.87;101192.72;5033708;28;20363;-79
2021/12/17 05:33:24;;;;;;;60.88;34.20;;;;;;;7.11;79.63;101195.91;5035988;28;20029;-78
2021/12/17 05:35:50;;;;;;;51.92;30.85;;;;;;;7.17;79.58;101200.03;5034135;28;20064;-79
2021/12/17 05:38:18;;;;;;;48.70;28.83;;;;;;;7.12;80.26;101202.97;5033632;28;20037;-78
2021/12/17 05:40:44;;;;;;;62.72;32.05;;;;;;;7.06;78.65;101205.16;5017018;28;20057;-79
2021/12/17 05:43:10;;;;;;;60.58;32.63;;;;;;;7.07;79.17;101193.50;5033123;28;20025;-79
2021/12/17 05:48:12;;;;;;;58.50;30.98;;;;;;;7.03;80.00;101192.81;5029938;28;20104;-79
2021/12/17 05:50:43;;;;;;;56.38;32.05;;;;;;;7.05;80.90;101198.06;5052877;28;20048;-79
2021/12/17 05:53:09;;;;;;;53.05;28.45;;;;;;;7.08;80.68;101200.56;5036507;28;20084;-79
2021/12/17 05:55:35;;;;;;;64.57;30.92;;;;;;;7.05;80.77;101200.75;5033519;28;20036;-79
2021/12/17 05:58:03;;;;;;;59.17;31.67;;;;;;;7.06;80.55;101206.00;5042827;28;20076;-79
2021/12/17 06:00:30;;;;;;;62.30;32.25;;;;;;;7.05;80.31;101209.63;5049221;28;20030;-79
2021/12/17 06:02:57;;;;;;;62.25;31.75;;;;;;;7.00;80.60;101206.34;5033856;28;20036;-78
2021/12/17 06:05:22;;;;;;;60.05;30.25;;;;;;;6.91;80.22;101206.88;5030378;28;20037;-78
2021/12/17 06:07:48;;;;;;;56.45;30.52;;;;;;;6.92;79.81;101202.41;5033889;28;20031;-78
2021/12/17 06:10:14;;;;;;;62.22;32.15;;;;;;;6.81;79.91;101199.47;5033810;28;20040;-80
2021/12/17 06:12:41;;;;;;;62.65;34.78;;;;;;;6.88;79.39;101215.06;5039027;28;20590;-81
2021/12/17 06:15:09;;;;;;;56.35;32.10;;;;;;;6.86;80.41;101203.63;5051614;28;20230;-82
2021/12/17 06:17:35;;;;;;;59.95;32.25;;;;;;;6.87;79.62;101207.16;5052670;28;20029;-80
2021/12/17 06:20:03;;;;;;;59.35;30.40;;;;;;;6.67;78.18;101204.72;5052676;28;20410;-79
2021/12/17 06:22:28;;;;;;;50.17;27.50;;;;;;;6.80;79.17;101203.09;5047027;28;20025;-81
2021/12/17 06:24:56;;;;;;;57.30;28.58;;;;;;;6.83;80.03;101217.16;5033546;28;20475;-79
2021/12/17 06:27:25;;;;;;;49.92;27.38;;;;;;;6.82;80.85;101215.41;5033069;28;20578;-80
2021/12/17 06:29:51;;;;;;;50.47;30.60;;;;;;;6.81;80.73;101212.84;5033095;28;20049;-81
2021/12/17 06:32:18;;;;;;;50.88;27.58;;;;;;;6.86;80.92;101205.41;5033395;28;20029;-81
2021/12/17 06:34:43;;;;;;;45.88;24.85;;;;;;;6.83;80.18;101202.91;5035440;28;20124;-80
2021/12/17 06:37:09;;;;;;;46.30;25.85;;;;;;;6.83;80.15;101198.44;5037449;28;20057;-81
2021/12/17 06:39:35;;;;;;;53.63;26.88;;;;;;;6.87;80.07;101196.47;5036723;28;20018;-80
2021/12/17 06:42:03;;;;;;;59.05;29.90;;;;;;;6.85;80.00;101199.19;5036060;28;20080;-81
2021/12/17 06:44:29;;;;;;;48.55;27.58;;;;;;;6.73;79.90;101199.91;5036704;28;20029;-80
2021/12/17 06:47:24;;;;;;;48.90;27.00;;;;;;;6.69;80.58;101198.38;5036863;28;20056;-81
2021/12/17 06:50:00;;;;;;;44.40;24.30;;;;;;;6.54;80.35;101194.72;5036353;28;20033;-81
2021/12/17 07:05:59;;;;;;;47.80;25.95;;;;;;;6.58;83.83;101206.09;5039290;28;20095;-81
2021/12/17 07:33:22;;;;;;;46.00;25.85;;;;;;;6.93;81.75;101193.44;5051663;28;20410;-84
2021/12/17 07:35:48;;;;;;;42.85;24.23;;;;;;;7.01;81.83;101191.16;5044193;28;20413;-86
2021/12/17 07:40:59;;;;;;;44.20;24.73;;;;;;;7.04;80.68;101193.66;5037945;28;20451;-79
2021/12/17 07:43:28;;;;;;;45.10;25.80;;;;;;;7.07;80.09;101182.78;5063381;28;20024;-82
2021/12/17 07:45:55;;;;;;;48.05;24.60;;;;;;;7.17;80.53;101185.78;5046035;28;20033;-82
2021/12/17 07:48:21;;;;;;;47.80;26.42;;;;;;;7.16;80.70;101182.25;5045702;28;20067;-86
2021/12/17 07:50:47;;;;;;;38.08;22.92;;;;;;;7.18;80.17;101180.38;5032246;28;20460;-81
2021/12/17 07:53:13;;;;;;;43.90;23.80;;;;;;;7.18;80.78;101176.84;5036195;28;20036;-81
2021/12/17 07:55:38;;;;;;;43.58;23.58;;;;;;;7.09;80.29;101186.25;5049986;28;20020;-86
2021/12/17 07:58:04;;;;;;;46.42;27.80;;;;;;;6.98;80.84;101189.53;5051019;28;20544;-84
2021/12/17 08:00:29;;;;;;;43.70;24.38;;;;;;;6.88;80.77;101188.34;5051055;28;20467;-88
2021/12/17 08:02:55;;;;;;;42.17;26.13;;;;;;;6.82;81.14;101194.03;5038806;28;20025;-86
2021/12/17 08:05:20;;;;;;;45.00;25.15;;;;;;;6.83;81.67;101186.88;5055940;28;20497;-85
2021/12/17 08:07:46;;;;;;;51.35;28.63;;;;;;;6.75;81.74;101181.97;5055862;28;20040;-85
2021/12/17 08:10:11;;;;;;;64.10;33.65;;;;;;;6.79;82.24;101196.03;5043002;28;20029;-84
2021/12/17 08:12:37;;;;;;;54.30;29.60;;;;;;;6.73;82.68;101172.34;5039399;28;20420;-85
2021/12/17 08:15:06;;;;;;;51.53;30.75;;;;;;;6.73;82.92;101183.84;5040991;28;20084;-82
2021/12/17 08:18:10;;;;;;;73.28;46.38;;;;;;;6.67;83.01;101178.88;5018006;28;20032;-85
2021/12/17 08:28:53;;;;;;;47.40;25.63;;;;;;;6.77;83.32;101172.06;5037510;28;20087;-82
2021/12/17 08:31:19;;;;;;;49.70;28.52;;;;;;;6.84;82.57;101172.56;5036662;28;20378;-81
2021/12/17 08:33:45;;;;;;;52.95;27.52;;;;;;;6.83;83.07;101168.16;5045416;28;20108;-85
2021/12/17 08:36:11;;;;;;;47.80;24.10;;;;;;;6.69;82.99;101147.59;5034829;28;20541;-83
2021/12/17 08:38:37;;;;;;;44.42;23.83;;;;;;;6.64;82.38;101146.97;5034226;28;20108;-84
2021/12/17 08:41:03;;;;;;;42.25;23.88;;;;;;;6.70;82.99;101159.09;5034298;28;20479;-85
2021/12/17 08:43:28;;;;;;;45.63;26.17;;;;;;;6.66;83.04;101153.09;5037343;28;20087;-84
2021/12/17 08:45:54;;;;;;;43.80;25.58;;;;;;;6.61;83.02;101135.59;5022402;28;20037;-89
2021/12/17 08:48:19;;;;;;;45.22;24.02;;;;;;;6.63;82.37;101133.69;5034480;28;20055;-87
2021/12/17 08:50:45;;;;;;;46.20;24.80;;;;;;;6.74;81.09;101139.28;5036455;28;20017;-79
2021/12/17 08:53:12;;;;;;;50.78;24.90;;;;;;;6.72;81.28;101138.53;5048695;28;20029;-81
2021/12/17 08:55:38;;;;;;;39.65;22.70;;;;;;;6.92;82.02;101141.75;5038982;28;20079;-88
2021/12/17 08:58:04;;;;;;;46.78;22.40;;;;;;;6.95;81.76;101136.25;5042797;28;20113;-81
2021/12/17 09:00:30;;;;;;;36.38;22.05;;;;;;;6.96;81.73;101134.44;5039959;28;20039;-85
2021/12/17 09:02:59;;;;;;;33.88;19.38;;;;;;;6.94;81.17;101122.97;5039464;28;20067;-80
2021/12/17 09:05:25;;;;;;;43.78;22.02;;;;;;;7.01;80.64;101121.63;5004067;28;20029;-83
2021/12/17 09:07:51;;;;;;;36.95;23.00;;;;;;;7.13;80.88;101134.28;5046446;28;20017;-78
2021/12/17 09:10:21;;;;;;;60.35;32.53;;;;;;;7.16;81.25;101120.72;5046040;28;20048;-81
2021/12/17 09:12:46;;;;;;;35.20;22.30;;;;;;;7.24;80.29;101106.91;5034849;28;20104;-84
2021/12/17 09:15:12;;;;;;;40.60;22.17;;;;;;;7.31;80.06;101133.19;5052981;28;20435;-80
2021/12/17 09:17:38;;;;;;;34.28;18.95;;;;;;;7.37;79.42;101106.06;5055070;28;20048;-80
2021/12/17 09:20:06;;;;;;;36.75;21.38;;;;;;;7.41;79.84;101099.59;5039323;28;20037;-83
2021/12/17 09:22:32;;;;;;;28.48;17.33;;;;;;;7.50;77.89;101112.41;5035586;28;20032;-85
2021/12/17 09:24:57;;;;;;;38.45;21.35;;;;;;;7.59;77.86;101114.53;5038955;28;20031;-85
2021/12/17 09:27:23;;;;;;;42.78;23.83;;;;;;;7.63;78.44;101107.16;5044115;28;20434;-80
2021/12/17 09:29:48;;;;;;;34.00;18.67;;;;;;;7.63;75.86;101096.47;5059342;28;20017;-82
2021/12/17 09:32:14;;;;;;;35.70;18.23;;;;;;;7.80;76.62;101087.41;5066212;28;20029;-82
2021/12/17 09:34:40;;;;;;;38.55;18.13;;;;;;;7.85;76.77;101096.00;5066026;28;20029;-79
2021/12/17 09:37:06;;;;;;;30.38;18.20;;;;;;;7.97;77.04;101084.50;5053553;28;20022;-80
2021/12/17 09:39:32;;;;;;;30.35;18.42;;;;;;;8.01;76.55;101078.84;5043658;28;20526;-79
2021/12/17 09:41:57;;;;;;;27.08;17.65;;;;;;;8.06;76.40;101083.91;5030901;28;20040;-80
2021/12/17 09:44:23;;;;;;;41.55;18.35;;;;;;;8.05;75.15;101082.19;5047500;28;20025;-81
2021/12/17 09:46:49;;;;;;;26.35;16.15;;;;;;;8.03;75.59;101078.75;5057160;28;20351;-83
2021/12/17 09:49:17;;;;;;;40.25;22.83;;;;;;;8.02;75.16;101077.03;5052643;28;20037;-85
2021/12/17 09:51:44;;;;;;;38.47;20.15;;;;;;;8.09;75.93;101086.41;5050459;28;20017;-86
2021/12/17 09:54:10;;;;;;;29.45;16.80;;;;;;;8.05;75.11;101066.13;5055171;28;20396;-85
2021/12/17 09:56:36;;;;;;;30.02;17.25;;;;;;;8.00;74.97;101050.34;5049779;28;20033;-87
2021/12/17 09:59:01;;;;;;;32.95;17.95;;;;;;;8.04;75.09;101061.75;5054976;28;20029;-83
2021/12/17 10:01:27;;;;;;;34.78;18.85;;;;;;;7.95;75.45;101065.00;5048950;28;20049;-81
2021/12/17 10:04:20;;;;;;;32.13;18.27;;;;;;;7.89;74.25;101050.16;5046654;28;20483;-80
2021/12/17 10:06:48;;;;;;;32.13;16.52;;;;;;;7.96;74.50;101072.06;5044077;28;20072;-80
2021/12/17 10:09:15;;;;;;;33.53;18.90;;;;;;;7.94;74.79;101073.97;5048595;28;20527;-79
2021/12/17 10:12:00;;;;;;;34.17;16.42;;;;;;;7.93;75.00;101048.16;5041208;28;20032;-81
2021/12/17 10:14:25;;;;;;;26.30;16.27;;;;;;;7.87;74.23;101040.50;5045882;28;20093;-83
2021/12/17 10:16:51;;;;;;;29.02;16.00;;;;;;;7.90;74.45;101046.53;5045285;28;20029;-82
2021/12/17 10:19:53;;;;;;;28.95;16.80;;;;;;;7.93;74.82;101056.19;5045838;28;20045;-80
2021/12/17 10:22:20;;;;;;;32.50;17.27;;;;;;;7.88;75.35;101043.09;5049677;28;20029;-81
2021/12/17 10:24:59;;;;;;;26.08;16.60;;;;;;;7.98;75.55;101049.56;5051197;28;20017;-81
2021/12/17 10:27:28;;;;;;;32.63;18.08;;;;;;;7.99;74.53;101039.72;5050378;28;20406;-80
2021/12/17 10:29:57;;;;;;;37.00;17.42;;;;;;;7.98;74.93;101046.06;5038145;28;20028;-81
2021/12/17 10:32:26;;;;;;;28.17;17.92;;;;;;;8.08;75.33;101040.00;5043175;28;20494;-80
2021/12/17 10:34:59;;;;;;;37.47;19.83;;;;;;;8.14;75.01;101038.72;5043111;28;20018;-82
2021/12/17 10:37:55;;;;;;;46.22;25.23;;;;;;;8.28;75.33;101041.44;5044690;28;20028;-81
2021/12/17 10:40:24;;;;;;;33.88;20.95;;;;;;;8.28;73.50;101041.44;5037761;28;20499;-79
2021/12/17 10:42:59;;;;;;;37.88;21.70;;;;;;;8.20;73.40;101035.66;5057139;28;20041;-83
2021/12/17 10:45:27;;;;;;;36.13;21.02;;;;;;;8.13;72.95;101032.50;5052096;28;20029;-83
2021/12/17 10:48:19;;;;;;;31.80;20.63;;;;;;;8.19;73.59;101036.63;5036306;28;20478;-82
2021/12/17 10:50:45;;;;;;;32.25;17.20;;;;;;;8.17;73.78;101030.50;5037118;28;20021;-80
2021/12/17 10:53:10;;;;;;;35.83;18.80;;;;;;;8.11;73.21;101017.50;5035920;28;20119;-82
2021/12/17 10:55:36;;;;;;;38.50;19.83;;;;;;;8.18;74.10;101018.84;5036797;28;20407;-81
2021/12/17 10:58:03;;;;;;;34.63;20.65;;;;;;;8.27;74.52;101018.22;5036411;28;20491;-82
2021/12/17 11:00:28;;;;;;;36.17;20.23;;;;;;;8.30;74.03;101018.06;5036858;28;20105;-82
2021/12/17 11:02:57;;;;;;;40.17;21.05;;;;;;;8.34;73.78;100995.47;5037445;28;20542;-82
2021/12/17 11:05:24;;;;;;;29.67;18.17;;;;;;;8.46;73.99;101008.06;5037200;28;20033;-86
2021/12/17 11:07:51;;;;;;;25.92;15.68;;;;;;;8.44;71.84;101004.59;5018928;28;20113;-86
2021/12/17 11:10:26;;;;;;;38.30;20.45;;;;;;;8.52;72.06;101001.41;5036499;28;20033;-82
2021/12/17 11:12:52;;;;;;;29.50;17.67;;;;;;;8.56;71.50;101009.13;5047318;28;20048;-82
2021/12/17 11:15:24;;;;;;;25.45;14.50;;;;;;;8.52;69.42;101001.41;5064622;28;20010;-81
2021/12/17 11:17:49;;;;;;;;;;;;;;;8.52;70.12;100988.88;5039449;28;20033;-78
2021/12/17 11:20:24;;;;;;;31.08;15.70;;;;;;;8.44;71.46;100983.16;5035568;28;19913;-82
2021/12/17 11:22:51;;;;;;;26.05;13.93;;;;;;;8.48;69.34;100999.91;5035125;28;20502;-81
2021/12/17 11:25:18;;;;;;;25.75;13.77;;;;;;;8.45;69.94;100990.25;5035952;28;20104;-80
2021/12/17 11:27:45;;;;;;;25.13;13.35;;;;;;;8.39;67.70;100985.28;5036196;28;20036;-80
2021/12/17 11:30:25;;;;;;;22.30;13.73;;;;;;;8.36;68.05;100990.84;5035656;28;20029;-81
2021/12/17 11:32:52;;;;;;;23.58;12.10;;;;;;;8.37;68.38;100992.59;5035887;28;20506;-78
2021/12/17 11:35:21;;;;;;;21.50;11.68;;;;;;;8.30;67.63;100977.88;5035009;28;20025;-78
2021/12/17 11:37:49;;;;;;;20.27;13.25;;;;;;;8.34;68.16;100989.25;5034699;28;20030;-78
2021/12/17 11:40:25;;;;;;;25.58;13.93;;;;;;;8.39;67.34;100973.72;5035096;28;20112;-78
2021/12/17 11:43:14;;;;;;;23.70;14.32;;;;;;;8.39;68.06;100974.56;5036628;28;20491;-78
2021/12/17 11:45:39;;;;;;;27.35;12.00;;;;;;;8.38;66.66;100972.84;5037162;28;20100;-75
2021/12/17 11:48:18;;;;;;;23.42;13.68;;;;;;;8.36;67.64;100969.41;5028504;28;20018;-79
2021/12/17 11:50:46;;;;;;;26.33;14.25;;;;;;;8.34;67.73;100973.16;5002539;28;20394;-80
2021/12/17 11:53:22;;;;;;;32.17;12.93;;;;;;;8.35;67.62;100970.38;5018197;28;20054;-77
2021/12/17 11:55:56;;;;;;;29.85;13.35;;;;;;;8.32;68.31;100965.22;5017252;28;20483;-76
2021/12/17 11:58:42;;;;;;;24.40;12.52;;;;;;;8.34;68.16;100976.72;5014942;28;20026;-83
2021/12/17 12:01:08;;;;;;;25.63;14.15;;;;;;;8.29;67.87;100976.13;5014689;28;20030;-78
2021/12/17 12:03:34;;;;;;;35.15;14.93;;;;;;;8.28;68.16;100978.94;5015004;28;20030;-78
2021/12/17 12:06:00;;;;;;;27.40;13.95;;;;;;;8.23;68.88;100979.19;5014976;28;20036;-77
2021/12/17 12:08:33;;;;;;;30.63;16.50;;;;;;;8.25;68.68;100976.41;5015046;28;20030;-77
2021/12/17 12:11:12;;;;;;;34.13;13.88;;;;;;;8.23;69.09;100980.06;5015217;28;20129;-80
2021/12/17 12:13:46;;;;;;;36.97;17.70;;;;;;;8.24;69.10;100980.91;5015089;28;20034;-77
2021/12/17 12:16:26;;;;;;;41.00;24.45;;;;;;;8.22;69.63;100977.50;5014913;28;20105;-78
2021/12/17 12:18:59;;;;;;;41.85;23.85;;;;;;;8.21;69.86;100976.63;5014599;28;20109;-79
2021/12/17 12:21:32;;;;;;;38.03;16.92;;;;;;;8.19;69.52;100970.50;5014637;28;20072;-76
2021/12/17 12:24:13;;;;;;;47.42;27.77;;;;;;;8.19;69.07;100972.34;5014272;28;20021;-82
2021/12/17 12:26:43;;;;;;;54.10;22.10;;;;;;;8.10;68.46;100968.41;5015794;28;20030;-80
2021/12/17 12:29:21;;;;;;;40.63;23.10;;;;;;;8.10;68.89;100962.22;5014779;28;20080;-80
2021/12/17 12:31:52;;;;;;;39.33;17.23;;;;;;;8.11;69.16;100972.81;5014142;28;20022;-83
2021/12/17 12:34:19;;;;;;;48.95;24.48;;;;;;;8.11;69.04;100964.78;4996722;28;20022;-77
2021/12/17 12:36:58;;;;;;;48.17;21.75;;;;;;;8.10;68.27;100968.41;5014209;28;20034;-82
2021/12/17 12:39:31;;;;;;;45.08;21.23;;;;;;;8.05;67.95;100964.31;5014332;28;20092;-77
2021/12/17 12:42:06;;;;;;;29.10;15.45;;;;;;;7.97;68.24;100978.25;5026527;28;20356;-77
2021/12/17 12:44:47;;;;;;;40.72;16.80;;;;;;;7.95;68.82;100973.94;5034007;28;20116;-79
2021/12/17 12:47:35;;;;;;;42.05;18.58;;;;;;;7.92;68.92;100984.84;5013634;28;20033;-76
2021/12/17 12:50:04;;;;;;;55.95;24.27;;;;;;;7.87;68.90;100982.47;5013862;28;20022;-77
2021/12/17 12:52:29;;;;;;;38.25;20.48;;;;;;;7.90;70.00;100981.41;5033537;28;20057;-77
2021/12/17 12:55:15;;;;;;;56.03;24.20;;;;;;;7.88;69.54;100983.31;5033914;28;20040;-76
2021/12/17 12:57:47;;;;;;;44.67;18.75;;;;;;;7.89;69.88;100974.34;5033919;28;20032;-76
2021/12/17 13:00:21;;;;;;;45.38;20.73;;;;;;;7.94;69.76;100980.25;5034342;28;20486;-78
2021/12/17 13:02:50;;;;;;;42.90;19.20;;;;;;;7.98;69.16;100979.09;5036737;28;20088;-76
2021/12/17 13:05:16;;;;;;;41.67;19.95;;;;;;;7.96;69.24;100971.16;5027431;28;20088;-78
2021/12/17 13:07:48;;;;;;;60.78;22.17;;;;;;;7.95;69.39;100968.59;5031922;28;20033;-78
2021/12/17 13:10:24;;;;;;;35.83;16.17;;;;;;;7.94;69.43;100967.72;5032900;28;20509;-76
2021/12/17 13:13:00;;;;;;;36.78;17.23;;;;;;;7.94;69.41;100956.16;5021809;28;20057;-78
2021/12/17 13:21:44;;;;;;;53.80;23.70;;;;;;;8.05;70.27;100948.25;5032980;28;20448;-77
2021/12/17 13:24:10;;;;;;;44.75;18.65;;;;;;;8.05;69.36;100950.94;5028897;28;20037;-77
2021/12/17 13:26:37;;;;;;;72.90;27.05;;;;;;;8.00;68.18;100943.22;5031216;28;20034;-79
2021/12/17 13:29:10;;;;;;;49.30;25.73;;;;;;;8.05;69.38;100948.25;5033124;28;20098;-77
2021/12/17 13:31:40;;;;;;;50.03;23.42;;;;;;;8.09;68.93;100945.28;5032565;28;20061;-77
2021/12/17 13:34:37;;;;;;;43.50;19.55;;;;;;;8.10;68.67;100956.88;5033637;28;20033;-77
2021/12/17 13:37:05;;;;;;;35.63;18.95;;;;;;;8.15;68.88;100954.72;5028942;28;20037;-77
2021/12/17 13:39:44;;;;;;;34.95;19.40;;;;;;;8.11;68.33;100956.75;5033072;28;20112;-77
2021/12/17 13:42:15;;;;;;;42.85;22.02;;;;;;;8.18;68.65;100954.53;5033288;28;20081;-77
2021/12/17 13:44:58;;;;;;;47.53;23.02;;;;;;;8.27;69.40;100961.97;5017256;28;20423;-77
2021/12/17 13:47:25;;;;;;;30.35;15.18;;;;;;;8.31;68.32;100958.16;5037662;28;20021;-77
2021/12/17 13:49:54;;;;;;;48.05;23.63;;;;;;;8.33;68.32;100958.91;5037326;28;20025;-78
2021/12/17 13:52:24;;;;;;;38.72;22.23;;;;;;;8.35;69.17;100961.50;5038087;28;20033;-78
2021/12/17 13:54:51;;;;;;;36.08;17.52;;;;;;;8.39;69.32;100968.34;5037760;28;20132;-77
2021/12/17 13:57:19;;;;;;;35.60;19.20;;;;;;;8.46;69.00;100965.16;5037717;28;20040;-78
2021/12/17 13:59:46;;;;;;;41.28;19.52;;;;;;;8.51;68.38;100956.78;5037919;28;20029;-77
2021/12/17 14:02:13;;;;;;;32.65;18.25;;;;;;;8.47;68.31;100961.50;5037614;28;20061;-77
2021/12/17 14:04:40;;;;;;;36.35;18.65;;;;;;;8.51;68.29;100965.72;5037638;28;20029;-78
2021/12/17 14:07:08;;;;;;;27.55;16.75;;;;;;;8.56;68.79;100966.25;5037674;28;20032;-77
2021/12/17 14:09:33;;;;;;;30.60;16.48;;;;;;;8.49;68.97;100948.88;5038425;28;20116;-77
2021/12/17 14:12:33;;;;;;;33.22;18.40;;;;;;;8.58;68.64;100953.63;5037703;28;20088;-79
2021/12/17 14:15:07;;;;;;;35.78;19.17;;;;;;;8.60;69.19;100959.72;5025862;28;20041;-77
2021/12/17 14:17:39;;;;;;;24.73;15.65;;;;;;;8.64;68.60;100969.28;5021119;28;20037;-77
2021/12/17 14:20:09;;;;;;;31.53;17.57;;;;;;;8.68;68.88;100965.41;5039029;28;20034;-78
2021/12/17 14:22:37;;;;;;;37.45;21.98;;;;;;;8.65;69.31;100964.78;5037333;28;20391;-77